createdAt,value
2023-04-24T00:02:01.977Z,89.70
2023-04-24T00:04:28.945Z,89.77
2023-04-24T00:06:58.554Z,90.67
2023-04-24T00:09:25.538Z,90.81
2023-04-24T00:11:54.578Z,90.20
2023-04-24T00:14:21.439Z,89.91
2023-04-24T00:16:48.273Z,90.86
2023-04-24T00:19:15.118Z,91.49
2023-04-24T00:21:42.647Z,92.81
2023-04-24T00:24:12.546Z,92.95
2023-04-24T00:26:39.362Z,93.82
2023-04-24T00:29:06.496Z,93.77
2023-04-24T00:31:35.777Z,94.03
2023-04-24T00:34:04.454Z,94.28
2023-04-24T00:36:31.966Z,94.31
2023-04-24T00:38:59.079Z,94.77
2023-04-24T00:41:26.640Z,95.26
2023-04-24T00:43:53.917Z,95.16
2023-04-24T00:46:22.192Z,94.66
2023-04-24T00:48:49.224Z,95.96
2023-04-24T00:51:16.805Z,95.80
2023-04-24T00:53:43.638Z,96.03
2023-04-24T00:56:11.169Z,96.64
2023-04-24T00:58:38.380Z,96.44
2023-04-24T01:01:07.917Z,96.46
2023-04-24T01:03:38.100Z,96.44
2023-04-24T01:06:06.417Z,97.04
2023-04-24T01:08:36.390Z,96.92
2023-04-24T01:11:05.852Z,96.60
2023-04-24T01:13:34.368Z,97.39
2023-04-24T01:16:02.398Z,97.87
2023-04-24T01:18:29.895Z,97.67
2023-04-24T01:21:05.124Z,98.88
2023-04-24T01:23:31.926Z,98.60
2023-04-24T01:25:58.806Z,98.28
2023-04-24T01:28:25.816Z,97.69
2023-04-24T01:30:53.635Z,98.11
2023-04-24T01:33:22.987Z,98.91
2023-04-24T01:35:51.308Z,99.13
2023-04-24T01:38:18.198Z,99.11
2023-04-24T01:40:45.198Z,99.33
2023-04-24T01:43:16.617Z,99.26
2023-04-24T01:45:43.426Z,98.45
2023-04-24T01:48:10.545Z,98.71
2023-04-24T01:50:37.366Z,98.38
2023-04-24T01:53:04.443Z,98.79
2023-04-24T01:55:31.510Z,99.23
2023-04-24T01:58:00.707Z,100.00
2023-04-24T02:00:27.557Z,100.00
2023-04-24T02:02:54.525Z,100.00
2023-04-24T02:05:24.553Z,100.00
2023-04-24T02:07:51.391Z,100.00
2023-04-24T02:10:18.162Z,100.00
2023-04-24T02:12:45.187Z,100.00
2023-04-24T02:15:13.224Z,100.00
2023-04-24T02:17:44.738Z,100.00
2023-04-24T02:20:11.793Z,100.00
2023-04-24T02:22:41.273Z,100.00
2023-04-24T02:25:09.011Z,100.00
2023-04-24T02:27:36.413Z,100.00
2023-04-24T02:30:10.427Z,100.00
2023-04-24T02:32:37.371Z,100.00
2023-04-24T02:35:04.523Z,100.00
2023-04-24T02:37:31.336Z,100.00
2023-04-24T02:39:58.192Z,100.00
2023-04-24T02:42:25.178Z,100.00
2023-04-24T02:44:52.355Z,100.00
2023-04-24T02:47:19.244Z,100.00
2023-04-24T02:49:46.194Z,100.00
2023-04-24T02:52:13.166Z,100.00
2023-04-24T02:54:39.975Z,100.00
2023-04-24T02:57:07.350Z,100.00
2023-04-24T02:59:34.277Z,100.00
2023-04-24T03:02:01.254Z,100.00
2023-04-24T03:04:28.974Z,100.00
2023-04-24T03:06:55.898Z,100.00
2023-04-24T03:09:23.061Z,100.00
2023-04-24T03:11:50.471Z,100.00
2023-04-24T03:14:17.694Z,100.00
2023-04-24T03:16:44.490Z,100.00
2023-04-24T03:19:11.834Z,100.00
2023-04-24T03:21:44.652Z,100.00
2023-04-24T03:24:11.475Z,100.00
2023-04-24T03:26:38.247Z,100.00
2023-04-24T03:29:05.081Z,100.00
2023-04-24T03:31:31.949Z,100.00
2023-04-24T03:33:58.765Z,100.00
2023-04-24T03:36:27.035Z,100.00
2023-04-24T03:38:53.812Z,100.00
2023-04-24T03:41:20.551Z,100.00
2023-04-24T03:43:47.436Z,100.00
2023-04-24T03:46:14.546Z,100.00
2023-04-24T03:48:41.842Z,100.00
2023-04-24T03:51:08.767Z,100.00
2023-04-24T03:53:35.555Z,100.00
2023-04-24T03:56:02.538Z,100.00
2023-04-24T03:58:29.440Z,100.00
2023-04-24T04:00:57.850Z,100.00
2023-04-24T04:03:25.003Z,100.00
2023-04-24T04:05:52.350Z,100.00
2023-04-24T04:08:19.111Z,100.00
2023-04-24T04:10:46.205Z,100.00
2023-04-24T04:13:13.326Z,100.00
2023-04-24T04:15:40.261Z,100.00
2023-04-24T04:18:07.384Z,100.00
2023-04-24T04:20:34.125Z,100.00
2023-04-24T04:23:01.195Z,100.00
2023-04-24T04:25:27.957Z,100.00
2023-04-24T04:27:54.804Z,100.00
2023-04-24T04:30:22.976Z,100.00
2023-04-24T04:32:49.748Z,100.00
2023-04-24T04:35:16.741Z,100.00
2023-04-24T04:37:43.514Z,100.00
2023-04-24T04:40:13.317Z,100.00
2023-04-24T04:42:41.296Z,100.00
2023-04-24T04:45:12.542Z,100.00
2023-04-24T04:47:40.538Z,100.00
2023-04-24T04:50:07.940Z,100.00
2023-04-24T04:52:34.694Z,100.00
2023-04-24T04:55:01.407Z,100.00
2023-04-24T04:57:28.375Z,100.00
2023-04-24T04:59:56.020Z,100.00
2023-04-24T05:02:22.857Z,100.00
2023-04-24T05:04:49.915Z,100.00
2023-04-24T05:07:17.036Z,100.00
2023-04-24T05:09:44.837Z,100.00
2023-04-24T05:12:11.967Z,100.00
2023-04-24T05:14:38.750Z,100.00
2023-04-24T05:17:05.738Z,100.00
2023-04-24T05:19:37.010Z,100.00
2023-04-24T05:22:13.024Z,100.00
2023-04-24T05:24:39.901Z,100.00
2023-04-24T05:27:06.830Z,100.00
2023-04-24T05:29:34.208Z,100.00
2023-04-24T05:32:02.199Z,100.00
2023-04-24T05:34:29.016Z,100.00
2023-04-24T05:36:55.972Z,100.00
2023-04-24T05:39:22.812Z,100.00
2023-04-24T05:41:49.495Z,100.00
2023-04-24T05:44:16.361Z,100.00
2023-04-24T05:46:43.224Z,100.00
2023-04-24T05:49:10.075Z,100.00
2023-04-24T05:51:36.997Z,100.00
2023-04-24T05:54:04.216Z,100.00
2023-04-24T05:56:31.680Z,100.00
2023-04-24T05:58:58.629Z,100.00
2023-04-24T06:01:26.117Z,100.00
2023-04-24T06:03:53.895Z,100.00
2023-04-24T06:06:20.978Z,100.00
2023-04-24T06:08:47.758Z,100.00
2023-04-24T06:11:15.065Z,100.00
2023-04-24T06:13:41.913Z,100.00
2023-04-24T06:16:09.063Z,100.00
2023-04-24T06:18:36.315Z,100.00
2023-04-24T06:21:03.634Z,100.00
2023-04-24T06:23:33.296Z,100.00
2023-04-24T06:26:00.767Z,100.00
2023-04-24T06:28:27.513Z,100.00
2023-04-24T06:30:54.440Z,100.00
2023-04-24T06:33:22.960Z,97.96
2023-04-24T06:35:50.682Z,98.16
2023-04-24T06:38:17.626Z,97.15
2023-04-24T06:40:46.795Z,99.00
2023-04-24T06:43:13.648Z,97.31
2023-04-24T06:45:40.799Z,95.95
2023-04-24T06:48:08.199Z,95.63
2023-04-24T06:50:35.026Z,96.09
2023-04-24T06:53:01.788Z,96.09
2023-04-24T06:55:28.755Z,94.22
2023-04-24T06:57:55.713Z,94.25
2023-04-24T07:00:25.021Z,95.65
2023-04-24T07:02:51.963Z,94.08
2023-04-24T07:05:20.931Z,93.78
2023-04-24T07:07:49.964Z,93.59
2023-04-24T07:10:20.632Z,89.93
2023-04-24T07:12:47.931Z,88.98
2023-04-24T07:15:14.980Z,84.69
2023-04-24T07:17:44.456Z,80.75
2023-04-24T07:20:12.412Z,81.32
2023-04-24T07:22:40.052Z,84.53
2023-04-24T07:27:51.118Z,84.40
2023-04-24T07:30:18.037Z,85.15
2023-04-24T07:32:44.933Z,87.89
2023-04-24T07:35:11.818Z,88.26
2023-04-24T07:37:39.751Z,85.48
2023-04-24T07:40:07.621Z,81.67
2023-04-24T07:42:35.580Z,80.90
2023-04-24T07:45:02.520Z,83.09
2023-04-24T07:47:30.603Z,81.91
2023-04-24T07:49:57.640Z,82.85
2023-04-24T07:52:25.395Z,80.42
2023-04-24T07:54:53.696Z,79.15
2023-04-24T07:57:20.752Z,77.49
2023-04-24T07:59:47.478Z,73.71
2023-04-24T08:02:14.373Z,74.92
2023-04-24T08:04:41.722Z,74.67
2023-04-24T08:07:09.189Z,74.01
2023-04-24T08:09:36.131Z,71.86
2023-04-24T08:12:03.427Z,70.49
2023-04-24T08:14:30.259Z,71.34
2023-04-24T08:16:57.402Z,67.87
2023-04-24T08:19:24.293Z,66.66
2023-04-24T08:21:51.049Z,68.08
2023-04-24T08:24:17.896Z,67.14
2023-04-24T08:26:44.908Z,65.34
2023-04-24T08:29:11.826Z,65.52
2023-04-24T08:31:38.700Z,65.15
2023-04-24T08:34:05.494Z,65.76
2023-04-24T08:36:46.017Z,66.57
2023-04-24T08:39:14.430Z,67.61
2023-04-24T08:41:46.790Z,68.27
2023-04-24T08:44:15.734Z,67.93
2023-04-24T08:46:48.613Z,66.14
2023-04-24T08:49:19.761Z,64.71
2023-04-24T08:51:48.555Z,61.36
2023-04-24T08:54:15.898Z,59.92
2023-04-24T08:56:46.051Z,59.50
2023-04-24T08:59:13.667Z,60.83
2023-04-24T09:01:42.286Z,61.72
2023-04-24T09:04:15.082Z,62.92
2023-04-24T09:06:43.215Z,63.82
2023-04-24T09:09:12.659Z,63.64
2023-04-24T09:11:42.624Z,64.25
2023-04-24T09:14:11.914Z,63.25
2023-04-24T09:16:38.992Z,62.88
2023-04-24T09:19:06.171Z,63.25
2023-04-24T09:21:35.758Z,60.83
2023-04-24T09:24:07.005Z,59.59
2023-04-24T09:26:37.483Z,62.70
2023-04-24T09:29:05.938Z,58.72
2023-04-24T09:31:33.271Z,57.98
2023-04-24T09:34:08.971Z,56.98
2023-04-24T09:36:42.468Z,53.43
2023-04-24T09:39:17.299Z,53.50
2023-04-24T09:42:01.018Z,51.96
2023-04-24T09:44:29.631Z,53.40
2023-04-24T09:46:59.433Z,51.86
2023-04-24T09:49:34.234Z,53.77
2023-04-24T09:52:13.452Z,52.94
2023-04-24T09:54:41.151Z,54.12
2023-04-24T09:57:11.225Z,55.19
2023-04-24T09:59:45.625Z,56.61
2023-04-24T10:02:20.882Z,57.27
2023-04-24T10:05:01.096Z,57.87
2023-04-24T10:07:29.633Z,58.65
2023-04-24T10:09:57.074Z,58.17
2023-04-24T10:12:26.066Z,58.63
2023-04-24T10:14:54.430Z,59.39
2023-04-24T10:17:23.027Z,59.51
2023-04-24T10:19:50.242Z,59.96
2023-04-24T10:22:18.764Z,60.60
2023-04-24T10:24:46.343Z,60.78
2023-04-24T10:27:16.406Z,61.35
2023-04-24T10:29:45.868Z,62.38
2023-04-24T10:32:12.752Z,63.97
2023-04-24T10:34:39.811Z,64.33
2023-04-24T10:37:07.028Z,65.17
2023-04-24T10:39:34.529Z,63.26
2023-04-24T10:42:01.739Z,62.14
2023-04-24T10:44:37.874Z,59.72
2023-04-24T10:47:05.023Z,58.26
2023-04-24T10:49:33.186Z,58.15
2023-04-24T10:52:07.965Z,55.75
2023-04-24T10:54:47.742Z,55.05
2023-04-24T10:57:29.597Z,54.07
2023-04-24T11:00:21.214Z,52.34
2023-04-24T11:02:52.594Z,52.53
2023-04-24T11:05:22.506Z,52.46
2023-04-24T11:08:17.009Z,52.53
2023-04-24T11:10:54.938Z,52.47
2023-04-24T11:13:29.188Z,52.32
2023-04-24T11:16:24.162Z,54.33
2023-04-24T11:18:58.292Z,56.18
2023-04-24T11:21:25.186Z,56.77
2023-04-24T11:23:51.978Z,56.74
2023-04-24T11:26:31.262Z,55.37
2023-04-24T11:29:08.985Z,53.69
2023-04-24T11:31:51.005Z,54.39
2023-04-24T11:34:19.249Z,54.37
2023-04-24T11:36:48.953Z,56.01
2023-04-24T11:39:16.643Z,57.58
2023-04-24T11:41:43.526Z,58.16
2023-04-24T11:44:12.497Z,57.87
2023-04-24T11:46:41.103Z,57.65
2023-04-24T11:49:08.350Z,58.45
2023-04-24T11:51:44.498Z,59.73
2023-04-24T11:54:22.105Z,59.96
2023-04-24T11:56:50.605Z,60.58
2023-04-24T11:59:17.467Z,60.48
2023-04-24T12:01:48.339Z,62.23
2023-04-24T12:04:18.477Z,65.40
2023-04-24T12:07:06.255Z,65.39
2023-04-24T12:09:56.635Z,64.85
2023-04-24T12:12:28.354Z,63.67
2023-04-24T12:15:00.770Z,62.02
2023-04-24T12:17:32.382Z,61.92
2023-04-24T12:20:02.149Z,61.42
2023-04-24T12:22:44.974Z,60.87
2023-04-24T12:25:12.583Z,60.84
2023-04-24T12:27:39.486Z,61.41
2023-04-24T12:30:12.448Z,63.06
2023-04-24T12:32:48.167Z,64.35
2023-04-24T12:35:21.923Z,64.65
2023-04-24T12:37:49.292Z,65.61
2023-04-24T12:40:16.779Z,66.29
2023-04-24T12:42:51.442Z,66.57
2023-04-24T12:45:20.243Z,66.84
2023-04-24T12:47:47.637Z,66.06
2023-04-24T12:50:18.359Z,65.45
2023-04-24T12:52:46.400Z,64.66
2023-04-24T12:55:13.445Z,64.70
2023-04-24T12:57:41.575Z,64.37
2023-04-24T13:00:10.948Z,64.41
2023-04-24T13:02:38.234Z,63.33
2023-04-24T13:05:06.700Z,60.89
2023-04-24T13:07:33.932Z,57.16
2023-04-24T13:10:01.166Z,57.51
2023-04-24T13:12:27.999Z,56.32
2023-04-24T13:14:55.250Z,55.54
2023-04-24T13:17:23.572Z,53.42
2023-04-24T13:19:52.732Z,54.13
2023-04-24T13:22:19.855Z,55.22
2023-04-24T13:24:49.745Z,55.49
2023-04-24T13:27:18.265Z,55.67
2023-04-24T13:29:48.778Z,56.44
2023-04-24T13:32:16.194Z,55.27
2023-04-24T13:34:44.250Z,55.45
2023-04-24T13:37:11.055Z,55.52
2023-04-24T13:39:37.891Z,54.98
2023-04-24T13:42:05.218Z,56.69
2023-04-24T13:47:13.265Z,56.41
2023-04-24T13:49:42.085Z,57.32
2023-04-24T13:52:11.168Z,54.27
2023-04-24T13:54:38.093Z,49.24
2023-04-24T13:57:05.158Z,47.46
2023-04-24T13:59:36.136Z,45.55
2023-04-24T14:02:03.052Z,45.11
2023-04-24T14:04:33.637Z,47.20
2023-04-24T14:07:02.004Z,44.62
2023-04-24T14:09:31.035Z,42.38
2023-04-24T14:12:00.868Z,44.85
2023-04-24T14:14:27.805Z,42.82
2023-04-24T14:16:55.147Z,45.56
2023-04-24T14:19:22.050Z,48.57
2023-04-24T14:21:50.565Z,49.21
2023-04-24T14:24:17.407Z,48.99
2023-04-24T14:26:44.209Z,46.94
2023-04-24T14:29:15.177Z,43.88
2023-04-24T14:31:43.784Z,41.80
2023-04-24T14:34:11.321Z,42.10
2023-04-24T14:36:40.805Z,44.06
2023-04-24T14:39:08.127Z,46.58
2023-04-24T14:41:36.779Z,48.27
2023-04-24T14:44:04.610Z,50.42
2023-04-24T14:46:32.082Z,51.84
2023-04-24T14:48:59.023Z,52.07
2023-04-24T14:51:26.508Z,51.11
2023-04-24T14:53:53.578Z,48.19
2023-04-24T14:56:20.575Z,47.05
2023-04-24T14:58:47.469Z,47.15
2023-04-24T15:01:14.279Z,46.18
2023-04-24T15:03:41.454Z,46.88
2023-04-24T15:06:08.402Z,48.34
2023-04-24T15:08:35.216Z,49.23
2023-04-24T15:11:02.790Z,50.11
2023-04-24T15:13:29.608Z,49.99
2023-04-24T15:15:56.547Z,51.21
2023-04-24T15:18:23.363Z,50.89
2023-04-24T15:20:50.631Z,51.88
2023-04-24T15:23:17.615Z,53.57
2023-04-24T15:25:44.870Z,54.44
2023-04-24T15:28:12.071Z,55.55
2023-04-24T15:30:39.005Z,56.29
2023-04-24T15:33:06.355Z,56.58
2023-04-24T15:35:33.264Z,56.68
2023-04-24T15:38:00.247Z,56.86
2023-04-24T15:40:27.231Z,56.71
2023-04-24T15:42:54.070Z,55.60
2023-04-24T15:45:21.042Z,55.80
2023-04-24T15:47:48.146Z,55.82
2023-04-24T15:50:16.941Z,55.03
2023-04-24T15:52:44.297Z,54.67
2023-04-24T15:55:11.631Z,54.62
2023-04-24T15:57:40.562Z,55.00
2023-04-24T16:00:09.667Z,54.85
2023-04-24T16:02:36.633Z,54.76
2023-04-24T16:05:03.977Z,54.79
2023-04-24T16:07:31.665Z,54.05
2023-04-24T16:09:58.507Z,54.99
2023-04-24T16:12:33.738Z,55.85
2023-04-24T16:15:01.308Z,55.27
2023-04-24T16:17:28.121Z,54.97
2023-04-24T16:19:54.910Z,54.11
2023-04-24T16:22:22.144Z,53.36
2023-04-24T16:24:49.009Z,54.52
2023-04-24T16:27:16.232Z,55.18
2023-04-24T16:29:47.101Z,55.71
2023-04-24T16:32:14.048Z,55.91
2023-04-24T16:34:40.971Z,56.47
2023-04-24T16:37:08.398Z,56.52
2023-04-24T16:39:35.757Z,56.59
2023-04-24T16:42:02.699Z,56.00
2023-04-24T16:44:29.499Z,56.36
2023-04-24T16:46:56.883Z,56.63
2023-04-24T16:49:24.084Z,56.34
2023-04-24T16:51:51.313Z,56.23
2023-04-24T16:54:18.673Z,57.11
2023-04-24T16:56:45.942Z,57.28
2023-04-24T16:59:13.389Z,57.30
2023-04-24T17:01:40.547Z,57.45
2023-04-24T17:04:14.544Z,57.85
2023-04-24T17:06:41.464Z,58.22
2023-04-24T17:09:08.943Z,59.04
2023-04-24T17:11:36.425Z,59.35
2023-04-24T17:14:06.589Z,59.87
2023-04-24T17:16:37.608Z,59.89
2023-04-24T17:19:06.071Z,59.96
2023-04-24T17:21:33.744Z,60.13
2023-04-24T17:24:00.596Z,60.73
2023-04-24T17:26:28.700Z,60.57
2023-04-24T17:28:55.707Z,60.85
2023-04-24T17:31:23.439Z,60.59
2023-04-24T17:33:50.614Z,60.76
2023-04-24T17:36:17.967Z,61.16
2023-04-24T17:38:44.901Z,61.66
2023-04-24T17:41:17.378Z,61.84
2023-04-24T17:43:45.593Z,61.83
2023-04-24T17:46:13.206Z,62.13
2023-04-24T17:48:40.918Z,62.37
2023-04-24T17:51:08.293Z,62.97
2023-04-24T17:53:35.228Z,63.29
2023-04-24T17:56:03.789Z,63.54
2023-04-24T17:58:31.379Z,63.42
2023-04-24T18:00:58.341Z,63.91
2023-04-24T18:03:25.529Z,64.42
2023-04-24T18:05:52.674Z,64.09
2023-04-24T18:08:19.684Z,64.76
2023-04-24T18:10:46.768Z,64.96
2023-04-24T18:13:13.829Z,65.22
2023-04-24T18:15:43.212Z,65.31
2023-04-24T18:18:11.556Z,65.50
2023-04-24T18:20:39.857Z,65.88
2023-04-24T18:23:06.810Z,66.08
2023-04-24T18:25:33.650Z,66.42
2023-04-24T18:28:00.635Z,66.58
2023-04-24T18:30:28.291Z,66.98
2023-04-24T18:32:57.799Z,67.36
2023-04-24T18:35:24.713Z,67.16
2023-04-24T18:37:53.165Z,67.45
2023-04-24T18:40:20.359Z,67.61
2023-04-24T18:42:50.292Z,68.16
2023-04-24T18:45:17.164Z,68.51
2023-04-24T18:47:44.362Z,68.62
2023-04-24T18:50:12.343Z,69.42
2023-04-24T18:52:39.852Z,69.37
2023-04-24T18:55:07.732Z,69.36
2023-04-24T18:57:34.583Z,69.50
2023-04-24T19:00:01.755Z,69.62
2023-04-24T19:02:29.321Z,69.49
2023-04-24T19:04:57.246Z,69.71
2023-04-24T19:07:24.592Z,69.80
2023-04-24T19:09:51.733Z,69.17
2023-04-24T19:12:22.913Z,68.83
2023-04-24T19:14:55.883Z,69.30
2023-04-24T19:17:25.153Z,69.27
2023-04-24T19:19:52.477Z,69.58
2023-04-24T19:22:22.504Z,70.28
2023-04-24T19:24:49.385Z,70.25
2023-04-24T19:27:16.220Z,70.49
2023-04-24T19:29:43.156Z,70.64
2023-04-24T19:32:12.861Z,70.88
2023-04-24T19:34:40.689Z,71.09
2023-04-24T19:37:08.161Z,71.44
2023-04-24T19:39:35.162Z,71.77
2023-04-24T19:42:05.855Z,72.35
2023-04-24T19:44:40.316Z,72.47
2023-04-24T19:47:07.301Z,72.68
2023-04-24T19:49:34.143Z,74.06
2023-04-24T19:52:01.176Z,75.08
2023-04-24T19:54:31.131Z,75.88
2023-04-24T19:56:58.228Z,75.92
2023-04-24T19:59:25.213Z,76.66
2023-04-24T20:01:52.886Z,77.43
2023-04-24T20:04:23.094Z,77.88
2023-04-24T20:06:51.259Z,78.26
2023-04-24T20:09:18.080Z,79.11
2023-04-24T20:11:50.992Z,79.43
2023-04-24T20:14:17.831Z,80.12
2023-04-24T20:16:44.854Z,80.82
2023-04-24T20:19:11.793Z,81.57
2023-04-24T20:21:38.756Z,79.97
2023-04-24T20:24:08.567Z,80.13
2023-04-24T20:26:36.275Z,81.13
2023-04-24T20:29:09.817Z,82.71
2023-04-24T20:31:37.215Z,82.85
2023-04-24T20:34:05.573Z,82.02
2023-04-24T20:36:33.994Z,81.18
2023-04-24T20:39:01.418Z,80.87
2023-04-24T20:41:28.428Z,80.31
2023-04-24T20:43:55.283Z,79.64
2023-04-24T20:46:22.531Z,79.55
2023-04-24T20:48:50.269Z,80.18
2023-04-24T20:51:17.406Z,82.02
2023-04-24T20:53:44.764Z,82.00
2023-04-24T20:56:11.918Z,81.99
2023-04-24T20:58:40.825Z,82.53
2023-04-24T21:01:18.619Z,83.07
2023-04-24T21:03:48.263Z,83.73
2023-04-24T21:06:16.089Z,83.26
2023-04-24T21:08:45.716Z,83.72
2023-04-24T21:11:12.851Z,83.94
2023-04-24T21:13:45.889Z,83.80
2023-04-24T21:16:14.200Z,83.94
2023-04-24T21:18:41.415Z,84.27
2023-04-24T21:21:09.531Z,84.98
2023-04-24T21:23:36.740Z,85.24
2023-04-24T21:26:07.566Z,84.99
2023-04-24T21:28:34.693Z,85.51
2023-04-24T21:31:01.745Z,86.86
2023-04-24T21:33:28.921Z,87.51
2023-04-24T21:35:56.690Z,88.05
2023-04-24T21:38:24.961Z,88.93
2023-04-24T21:40:52.535Z,89.59
2023-04-24T21:43:25.327Z,89.16
2023-04-24T21:45:57.728Z,88.74
2023-04-24T21:48:24.552Z,89.11
2023-04-24T21:50:51.497Z,90.11
2023-04-24T21:53:18.271Z,90.26
2023-04-24T21:55:45.788Z,89.79
2023-04-24T21:58:12.826Z,90.20
2023-04-24T22:00:39.650Z,91.47
2023-04-24T22:03:06.535Z,91.77
2023-04-24T22:05:33.401Z,93.17
2023-04-24T22:08:00.304Z,95.68
2023-04-24T22:10:27.082Z,96.09
2023-04-24T22:12:54.672Z,97.18
2023-04-24T22:15:23.530Z,97.42
2023-04-24T22:17:53.206Z,96.85
2023-04-24T22:20:21.497Z,96.70
2023-04-24T22:22:48.659Z,95.91
2023-04-24T22:25:18.111Z,96.16
2023-04-24T22:27:44.833Z,95.74
2023-04-24T22:30:12.211Z,95.19
2023-04-24T22:32:41.462Z,94.86
2023-04-24T22:35:10.920Z,94.32
2023-04-24T22:37:39.739Z,92.76
2023-04-24T22:40:10.248Z,89.78
2023-04-24T22:42:38.223Z,90.62
2023-04-24T22:45:08.349Z,90.51
2023-04-24T22:47:35.955Z,90.68
2023-04-24T22:50:03.401Z,92.00
2023-04-24T22:52:30.291Z,92.36
2023-04-24T22:55:00.689Z,93.40
2023-04-24T22:57:29.652Z,93.74
2023-04-24T22:59:57.275Z,93.75
2023-04-24T23:02:24.205Z,95.27
2023-04-24T23:04:51.597Z,93.94
2023-04-24T23:07:18.433Z,92.37
2023-04-24T23:09:46.352Z,91.12
2023-04-24T23:12:13.565Z,90.25
2023-04-24T23:14:40.605Z,89.76
2023-04-24T23:17:07.356Z,88.96
2023-04-24T23:19:34.184Z,88.87
2023-04-24T23:22:01.097Z,88.13
2023-04-24T23:24:28.022Z,88.17
2023-04-24T23:26:54.737Z,88.30
2023-04-24T23:29:23.086Z,88.69
2023-04-24T23:31:49.929Z,88.72
2023-04-24T23:34:18.701Z,88.51
2023-04-24T23:36:47.219Z,88.86
2023-04-24T23:39:14.203Z,90.58
2023-04-24T23:41:43.099Z,94.03
2023-04-24T23:44:12.994Z,95.85
2023-04-24T23:46:39.777Z,97.21
2023-04-24T23:49:08.860Z,97.76
2023-04-24T23:51:35.730Z,97.73
2023-04-24T23:54:02.627Z,97.71
2023-04-24T23:56:29.465Z,98.27
2023-04-24T23:58:56.553Z,99.26
